Terminal Aerodrome Forecast
Issued by NWS

Home | Current Version | Previous Version | Text Only | Print | Product List | Glossary On
Versions: 1 2 3 4 5 6 7 8 9 10 11 12 13 14 15 16 17 18 19 20 21 22
095
FTUS41 KBUF 260935 AAA
TAFJHW
TAF AMD
KJHW 260935Z 2610/2706 13005KT P6SM BKN015
     FM261100 00000KT P6SM BKN012
     FM261400 VRB03KT P6SM BKN025
     FM261600 16004KT P6SM BKN035
     FM261700 16005KT P6SM SCT040
     FM262200 17007KT P6SM FEW140
      AMD LTD TO CLD VIS AND WIND=

USA.gov is the U.S. government's official web portal to all federal, state and local government web resources and services.